createdAt,value
2022-09-10T00:00:34.315Z,2.48
2022-09-10T00:02:05.696Z,2.34
2022-09-10T00:03:37.027Z,2.44
2022-09-10T00:05:08.258Z,2.35
2022-09-10T00:06:39.554Z,2.32
2022-09-10T00:08:10.780Z,2.69
2022-09-10T00:09:42.071Z,2.37
2022-09-10T00:11:13.332Z,2.42
2022-09-10T00:12:44.682Z,2.45
2022-09-10T00:14:15.963Z,2.43
2022-09-10T00:15:47.320Z,2.73
2022-09-10T00:17:18.808Z,2.42
2022-09-10T00:18:50.131Z,2.46
2022-09-10T00:20:21.382Z,2.46
2022-09-10T00:21:52.639Z,2.44
2022-09-10T00:23:24.027Z,2.25
2022-09-10T00:24:55.476Z,2.35
2022-09-10T00:26:26.756Z,2.25
2022-09-10T00:27:58.097Z,2.40
2022-09-10T00:29:29.563Z,2.15
2022-09-10T00:31:00.850Z,2.09
2022-09-10T00:32:32.174Z,2.39
2022-09-10T00:34:03.516Z,2.25
2022-09-10T00:35:34.800Z,2.13
2022-09-10T00:37:06.018Z,1.99
2022-09-10T00:38:37.393Z,2.16
2022-09-10T00:40:08.817Z,1.92
2022-09-10T00:41:40.209Z,2.26
2022-09-10T00:43:11.547Z,2.31
2022-09-10T00:44:42.826Z,2.27
2022-09-10T00:46:14.023Z,2.19
2022-09-10T00:47:45.309Z,2.16
2022-09-10T00:49:16.730Z,2.10
2022-09-10T00:50:47.997Z,2.29
2022-09-10T00:52:19.246Z,2.32
2022-09-10T00:53:50.469Z,2.52
2022-09-10T00:55:21.714Z,2.55
2022-09-10T00:56:53.076Z,2.50
2022-09-10T00:58:24.572Z,2.49
2022-09-10T00:59:56.075Z,2.26
2022-09-10T01:01:27.392Z,1.95
2022-09-10T01:02:58.640Z,2.32
2022-09-10T01:04:29.873Z,2.14
2022-09-10T01:06:01.110Z,2.28
2022-09-10T01:07:32.349Z,2.41
2022-09-10T01:09:03.669Z,2.36
2022-09-10T01:10:34.955Z,2.32
2022-09-10T01:12:06.263Z,2.55
2022-09-10T01:13:37.487Z,2.16
2022-09-10T01:15:08.789Z,2.14
2022-09-10T01:16:40.108Z,2.24
2022-09-10T01:18:11.530Z,2.26
2022-09-10T01:19:42.786Z,2.11
2022-09-10T01:21:14.825Z,2.06
2022-09-10T01:22:46.177Z,2.25
2022-09-10T01:24:17.431Z,2.04
2022-09-10T01:25:48.697Z,2.38
2022-09-10T01:27:19.954Z,2.09
2022-09-10T01:28:51.300Z,2.11
2022-09-10T01:30:22.653Z,2.23
2022-09-10T01:31:53.980Z,2.28
2022-09-10T01:33:25.242Z,2.18
2022-09-10T01:34:56.494Z,2.22
2022-09-10T01:36:27.851Z,2.26
2022-09-10T01:37:59.105Z,2.90
2022-09-10T01:39:30.498Z,2.42
2022-09-10T01:41:02.055Z,2.08
2022-09-10T01:42:33.996Z,2.11
2022-09-10T01:44:05.206Z,2.05
2022-09-10T01:45:36.540Z,1.91
2022-09-10T01:47:07.822Z,2.17
2022-09-10T01:48:39.272Z,2.27
2022-09-10T01:50:10.605Z,2.19
2022-09-10T01:51:41.902Z,2.36
2022-09-10T01:53:13.249Z,2.83
2022-09-10T01:54:44.537Z,2.87
2022-09-10T01:56:16.612Z,3.83
2022-09-10T01:57:47.974Z,3.20
2022-09-10T01:59:19.336Z,3.08
2022-09-10T02:00:50.680Z,3.17
2022-09-10T02:02:22.118Z,2.65
2022-09-10T02:03:53.650Z,2.65
2022-09-10T02:05:25.013Z,2.39
2022-09-10T02:06:56.355Z,2.22
2022-09-10T02:08:27.694Z,2.29
2022-09-10T02:09:58.971Z,2.26
2022-09-10T02:11:30.234Z,2.46
2022-09-10T02:13:01.484Z,2.93
2022-09-10T02:14:32.775Z,2.79
2022-09-10T02:16:04.165Z,2.46
2022-09-10T02:17:35.505Z,2.38
2022-09-10T02:19:06.822Z,2.30
2022-09-10T02:20:38.142Z,2.41
2022-09-10T02:22:09.470Z,2.22
2022-09-10T02:23:40.772Z,2.34
2022-09-10T02:25:12.103Z,2.41
2022-09-10T02:26:43.391Z,2.19
2022-09-10T02:28:14.663Z,2.39
2022-09-10T02:29:45.950Z,2.12
2022-09-10T02:31:17.392Z,2.05
2022-09-10T02:32:48.765Z,1.80
2022-09-10T02:34:20.130Z,1.74
2022-09-10T02:35:51.557Z,1.54
2022-09-10T02:37:22.825Z,1.66
2022-09-10T02:38:54.590Z,1.57
2022-09-10T02:40:25.827Z,1.60
2022-09-10T02:41:57.088Z,1.53
2022-09-10T02:43:28.449Z,1.49
2022-09-10T02:44:59.716Z,1.58
2022-09-10T02:46:31.083Z,1.67
2022-09-10T02:48:02.317Z,1.49
2022-09-10T02:49:35.901Z,1.43
2022-09-10T02:51:07.317Z,1.47
2022-09-10T02:52:38.716Z,1.44
2022-09-10T02:54:09.945Z,1.46
2022-09-10T02:55:41.247Z,1.45
2022-09-10T02:57:12.637Z,1.52
2022-09-10T02:58:44.136Z,1.43
2022-09-10T03:00:15.398Z,1.56
2022-09-10T03:01:46.710Z,1.70
2022-09-10T03:03:18.110Z,1.57
2022-09-10T03:04:49.563Z,1.55
2022-09-10T03:06:20.846Z,1.47
2022-09-10T03:07:52.188Z,1.55
2022-09-10T03:09:23.558Z,1.87
2022-09-10T03:10:54.892Z,1.82
2022-09-10T03:12:31.197Z,1.62
2022-09-10T03:14:02.494Z,1.60
2022-09-10T03:15:33.795Z,1.57
2022-09-10T03:17:05.084Z,1.73
2022-09-10T03:18:36.904Z,1.78
2022-09-10T03:20:08.330Z,1.64
2022-09-10T03:21:39.578Z,1.80
2022-09-10T03:23:11.013Z,1.84
2022-09-10T03:24:42.309Z,1.76
2022-09-10T03:26:13.793Z,1.97
2022-09-10T03:27:45.070Z,2.30
2022-09-10T03:29:16.340Z,2.20
2022-09-10T03:30:47.638Z,2.07
2022-09-10T03:32:18.957Z,2.51
2022-09-10T03:33:50.323Z,2.23
2022-09-10T03:35:21.669Z,2.48
2022-09-10T03:36:52.947Z,2.43
2022-09-10T03:38:24.205Z,2.92
2022-09-10T03:40:00.743Z,2.78
2022-09-10T03:41:32.056Z,2.72
2022-09-10T03:43:03.882Z,2.82
2022-09-10T03:44:35.434Z,2.77
2022-09-10T03:46:06.798Z,2.91
2022-09-10T03:47:38.130Z,2.93
2022-09-10T03:49:09.647Z,3.29
2022-09-10T03:50:40.977Z,3.33
2022-09-10T03:52:12.263Z,3.49
2022-09-10T03:53:43.563Z,4.08
2022-09-10T03:55:15.043Z,4.33
2022-09-10T03:56:46.300Z,4.19
2022-09-10T03:58:17.650Z,3.97
2022-09-10T03:59:48.930Z,4.28
2022-09-10T04:01:20.281Z,4.37
2022-09-10T04:02:51.807Z,4.42
2022-09-10T04:04:23.271Z,4.11
2022-09-10T04:05:54.635Z,4.32
2022-09-10T04:07:25.968Z,4.17
2022-09-10T04:08:57.960Z,4.03
2022-09-10T04:10:29.330Z,4.31
2022-09-10T04:12:00.790Z,4.03
2022-09-10T04:13:32.173Z,4.14
2022-09-10T04:15:18.452Z,3.66
2022-09-10T04:16:49.859Z,3.41
2022-09-10T04:18:21.231Z,3.64
2022-09-10T04:19:52.580Z,3.56
2022-09-10T04:21:23.853Z,3.33
2022-09-10T04:23:00.354Z,3.59
2022-09-10T04:24:31.822Z,3.33
2022-09-10T04:26:03.279Z,3.31
2022-09-10T04:27:34.623Z,3.17
2022-09-10T04:29:05.878Z,3.34
2022-09-10T04:30:37.151Z,3.38
2022-09-10T04:32:08.391Z,3.48
2022-09-10T04:33:39.698Z,3.13
2022-09-10T04:35:10.974Z,4.19
2022-09-10T04:36:42.313Z,3.77
2022-09-10T04:38:13.556Z,3.81
2022-09-10T04:39:44.904Z,3.86
2022-09-10T04:41:16.239Z,4.23
2022-09-10T04:42:47.483Z,4.23
2022-09-10T04:44:18.888Z,4.25
2022-09-10T04:45:50.259Z,4.28
2022-09-10T04:47:21.581Z,4.06
2022-09-10T04:48:52.864Z,4.18
2022-09-10T04:50:29.144Z,4.25
2022-09-10T04:52:00.508Z,3.95
2022-09-10T04:53:36.762Z,4.36
2022-09-10T04:55:08.002Z,4.22
2022-09-10T04:56:39.279Z,4.30
2022-09-10T04:58:10.590Z,4.52
2022-09-10T04:59:41.880Z,4.22
2022-09-10T05:01:13.148Z,4.24
2022-09-10T05:02:44.508Z,4.48
2022-09-10T05:04:15.873Z,4.51
2022-09-10T05:05:47.233Z,4.70
2022-09-10T05:07:18.576Z,4.38
2022-09-10T05:08:49.980Z,4.26
2022-09-10T05:10:21.340Z,4.41
2022-09-10T05:11:52.664Z,4.40
2022-09-10T05:13:23.961Z,4.85
2022-09-10T05:14:55.430Z,4.86
2022-09-10T05:16:26.906Z,4.65
2022-09-10T05:17:58.260Z,4.72
2022-09-10T05:19:29.663Z,4.62
2022-09-10T05:21:00.981Z,4.62
2022-09-10T05:22:37.242Z,4.43
2022-09-10T05:24:11.717Z,4.29
2022-09-10T05:25:43.176Z,4.38
2022-09-10T05:27:14.420Z,4.39
2022-09-10T05:28:45.873Z,4.48
2022-09-10T05:30:17.154Z,4.43
2022-09-10T05:31:48.489Z,4.79
2022-09-10T05:33:19.894Z,4.45
2022-09-10T05:34:51.276Z,4.87
2022-09-10T05:36:22.626Z,4.70
2022-09-10T05:37:53.899Z,4.47
2022-09-10T05:39:25.248Z,4.58
2022-09-10T05:40:56.509Z,4.58
2022-09-10T05:42:27.765Z,4.92
2022-09-10T05:43:59.017Z,4.83
2022-09-10T05:45:30.404Z,4.82
2022-09-10T05:47:01.749Z,4.86
2022-09-10T05:48:32.998Z,5.09
2022-09-10T05:50:04.928Z,5.40
2022-09-10T05:51:36.239Z,5.08
2022-09-10T05:53:07.929Z,5.05
2022-09-10T05:54:39.244Z,5.02
2022-09-10T05:56:10.512Z,5.14
2022-09-10T05:57:41.859Z,4.83
2022-09-10T05:59:13.151Z,5.40
2022-09-10T06:00:44.489Z,5.34
2022-09-10T06:02:15.851Z,5.31
2022-09-10T06:03:47.193Z,5.35
2022-09-10T06:05:18.565Z,5.73
2022-09-10T06:06:49.907Z,5.59
2022-09-10T06:08:21.152Z,5.27
2022-09-10T06:09:52.456Z,5.37
2022-09-10T06:11:25.282Z,5.58
2022-09-10T06:12:56.747Z,5.52
2022-09-10T06:14:28.390Z,5.60
2022-09-10T06:15:59.731Z,5.68
2022-09-10T06:17:31.000Z,6.58
2022-09-10T06:19:02.310Z,6.64
2022-09-10T06:20:33.595Z,5.19
2022-09-10T06:22:04.900Z,5.46
2022-09-10T06:23:36.216Z,5.58
2022-09-10T06:25:07.654Z,5.82
2022-09-10T06:26:39.026Z,5.40
2022-09-10T06:28:15.386Z,5.37
2022-09-10T06:29:46.657Z,5.49
2022-09-10T06:31:23.004Z,5.15
2022-09-10T06:32:54.379Z,5.33
2022-09-10T06:34:25.733Z,5.29
2022-09-10T06:35:57.026Z,5.06
2022-09-10T06:37:28.339Z,5.08
2022-09-10T06:38:59.606Z,5.33
2022-09-10T06:40:31.088Z,5.38
2022-09-10T06:42:02.491Z,5.42
2022-09-10T06:43:33.870Z,5.18
2022-09-10T06:45:05.202Z,4.99
2022-09-10T06:47:30.470Z,4.97
2022-09-10T06:49:10.695Z,4.85
2022-09-10T06:50:41.980Z,5.43
2022-09-10T06:52:13.190Z,5.47
2022-09-10T06:53:44.753Z,5.16
2022-09-10T06:55:16.137Z,4.91
2022-09-10T06:56:47.780Z,5.30
2022-09-10T06:58:19.156Z,5.06
2022-09-10T06:59:50.509Z,5.25
2022-09-10T07:01:21.923Z,5.19
2022-09-10T07:02:53.219Z,5.07
2022-09-10T07:04:24.477Z,4.94
2022-09-10T07:05:56.451Z,5.05
2022-09-10T07:07:27.765Z,5.57
2022-09-10T07:08:59.041Z,5.81
2022-09-10T07:10:30.383Z,5.41
2022-09-10T07:12:01.718Z,5.99
2022-09-10T07:13:32.998Z,5.59
2022-09-10T07:15:04.235Z,5.54
2022-09-10T07:16:35.613Z,6.32
2022-09-10T07:18:06.874Z,5.96
2022-09-10T07:19:38.162Z,6.11
2022-09-10T07:21:09.687Z,6.23
2022-09-10T07:22:41.085Z,6.43
2022-09-10T07:24:12.312Z,5.92
2022-09-10T07:25:43.587Z,6.12
2022-09-10T07:27:14.905Z,6.53
2022-09-10T07:28:51.439Z,5.98
2022-09-10T07:30:22.800Z,5.99
2022-09-10T07:31:55.693Z,5.66
2022-09-10T07:33:27.137Z,6.12
2022-09-10T07:34:58.476Z,5.81
2022-09-10T07:36:29.835Z,5.86
2022-09-10T07:38:01.199Z,5.68
2022-09-10T07:39:32.626Z,6.04
2022-09-10T07:41:03.985Z,6.45
2022-09-10T07:42:35.418Z,5.84
2022-09-10T07:44:06.895Z,6.05
2022-09-10T07:45:38.433Z,5.92
2022-09-10T07:47:10.009Z,6.19
2022-09-10T07:48:41.707Z,5.80
2022-09-10T07:50:13.152Z,5.39
2022-09-10T07:51:44.476Z,5.69
2022-09-10T07:53:15.829Z,6.07
2022-09-10T07:54:47.100Z,5.58
2022-09-10T07:56:18.366Z,5.71
2022-09-10T07:57:49.855Z,5.81
2022-09-10T07:59:21.315Z,5.71
2022-09-10T08:00:52.583Z,5.47
2022-09-10T08:02:23.900Z,5.21
2022-09-10T08:03:55.325Z,5.34
2022-09-10T08:05:26.796Z,5.01
2022-09-10T08:06:58.265Z,5.13
2022-09-10T08:08:29.691Z,4.70
2022-09-10T08:10:01.171Z,4.85
2022-09-10T08:11:32.477Z,4.87
2022-09-10T08:13:03.791Z,4.73
2022-09-10T08:14:35.231Z,4.35
2022-09-10T08:16:06.493Z,4.71
2022-09-10T08:17:38.117Z,5.03
2022-09-10T08:19:09.536Z,4.57
2022-09-10T08:20:40.917Z,4.49
2022-09-10T08:22:13.766Z,4.23
2022-09-10T08:23:45.406Z,4.93
2022-09-10T08:25:16.915Z,4.78
2022-09-10T08:26:48.367Z,4.35
2022-09-10T08:28:25.648Z,4.46
2022-09-10T08:29:57.952Z,4.54
2022-09-10T08:31:30.367Z,4.75
2022-09-10T08:33:01.957Z,4.88
2022-09-10T08:34:33.352Z,4.65
2022-09-10T08:36:04.740Z,4.50
2022-09-10T08:37:36.227Z,4.35
2022-09-10T08:39:08.488Z,4.39
2022-09-10T08:40:39.887Z,4.31
2022-09-10T08:42:11.161Z,4.14
2022-09-10T08:43:42.498Z,4.08
2022-09-10T08:45:13.870Z,3.95
2022-09-10T08:46:45.565Z,4.01
2022-09-10T08:48:16.882Z,4.36
2022-09-10T08:49:48.277Z,4.63
2022-09-10T08:51:19.606Z,4.31
2022-09-10T08:52:51.443Z,4.51
2022-09-10T08:54:27.796Z,4.15
2022-09-10T08:55:59.266Z,4.25
2022-09-10T08:57:30.665Z,4.45
2022-09-10T08:59:01.954Z,4.31
2022-09-10T09:00:33.395Z,4.86
2022-09-10T09:02:06.169Z,4.62
2022-09-10T09:03:42.740Z,4.01
2022-09-10T09:05:14.092Z,3.91
2022-09-10T09:06:45.582Z,4.20
2022-09-10T09:08:17.080Z,4.33
2022-09-10T09:09:48.818Z,3.93
2022-09-10T09:11:20.590Z,3.76
2022-09-10T09:12:52.021Z,4.01
2022-09-10T09:14:23.619Z,3.81
2022-09-10T09:15:55.093Z,3.84
2022-09-10T09:17:26.857Z,3.93
2022-09-10T09:18:58.280Z,3.86
2022-09-10T09:20:29.652Z,3.92
2022-09-10T09:22:01.036Z,3.94
2022-09-10T09:23:32.398Z,3.73
2022-09-10T09:25:03.749Z,3.87
2022-09-10T09:26:35.049Z,4.46
2022-09-10T09:28:11.501Z,4.55
2022-09-10T09:29:42.894Z,4.93
2022-09-10T09:31:14.230Z,4.77
2022-09-10T09:32:45.660Z,4.64
2022-09-10T09:34:17.339Z,4.70
2022-09-10T09:35:48.747Z,4.59
2022-09-10T09:37:20.245Z,4.46
2022-09-10T09:38:51.928Z,4.68
2022-09-10T09:40:23.320Z,4.31
2022-09-10T09:41:54.606Z,4.27
2022-09-10T09:43:26.030Z,4.41
2022-09-10T09:44:57.492Z,4.40
2022-09-10T09:46:28.902Z,4.63
2022-09-10T09:48:00.535Z,4.52
2022-09-10T09:49:37.054Z,4.41
2022-09-10T09:51:15.644Z,4.35
2022-09-10T09:53:10.391Z,4.87
2022-09-10T09:55:12.748Z,4.41
2022-09-10T09:56:45.533Z,4.53
2022-09-10T09:58:17.206Z,4.46
2022-09-10T09:59:48.685Z,4.95
2022-09-10T10:01:21.435Z,4.63
2022-09-10T10:02:53.165Z,4.89
2022-09-10T10:04:24.531Z,4.63
2022-09-10T10:05:56.926Z,4.60
2022-09-10T10:07:29.508Z,4.80
2022-09-10T10:09:01.356Z,4.85
2022-09-10T10:10:33.169Z,4.59
2022-09-10T10:12:04.472Z,4.68
2022-09-10T10:13:35.996Z,4.57
2022-09-10T10:15:07.385Z,4.77
2022-09-10T10:16:38.752Z,4.61
2022-09-10T10:18:10.180Z,4.87
2022-09-10T10:19:42.082Z,4.56
2022-09-10T10:21:13.417Z,4.77
2022-09-10T10:22:44.766Z,4.54
2022-09-10T10:24:16.117Z,4.56
2022-09-10T10:25:47.903Z,4.53
2022-09-10T10:27:19.494Z,4.76
2022-09-10T10:28:51.098Z,4.59
2022-09-10T10:30:22.794Z,4.80
2022-09-10T10:31:54.209Z,4.46
2022-09-10T10:33:25.614Z,4.55
2022-09-10T10:34:57.048Z,4.55
2022-09-10T10:36:34.154Z,4.83
2022-09-10T10:38:06.519Z,4.47
2022-09-10T10:39:38.095Z,5.14
2022-09-10T10:41:10.075Z,4.66
2022-09-10T10:42:41.551Z,5.29
2022-09-10T10:44:13.032Z,5.49
2022-09-10T10:45:44.624Z,5.72
2022-09-10T10:47:15.957Z,5.55
2022-09-10T10:48:47.735Z,5.60
2022-09-10T10:50:19.135Z,5.32
2022-09-10T10:51:50.804Z,5.13
2022-09-10T10:53:22.112Z,5.52
2022-09-10T10:54:53.717Z,4.70
2022-09-10T10:56:25.075Z,4.34
2022-09-10T10:57:56.591Z,4.27
2022-09-10T10:59:27.951Z,4.38
2022-09-10T11:00:59.332Z,4.92
2022-09-10T11:02:30.645Z,5.02
2022-09-10T11:04:02.204Z,4.24
2022-09-10T11:05:34.161Z,4.51
2022-09-10T11:07:05.917Z,4.36
2022-09-10T11:08:37.326Z,4.55
2022-09-10T11:10:08.896Z,4.73
2022-09-10T11:11:40.279Z,5.10
2022-09-10T11:13:11.536Z,5.45
2022-09-10T11:14:42.820Z,5.27
2022-09-10T11:16:14.174Z,6.13
2022-09-10T11:17:46.557Z,5.63
2022-09-10T11:19:18.107Z,4.98
2022-09-10T11:20:49.622Z,4.70
2022-09-10T11:22:37.139Z,4.15
2022-09-10T11:24:18.950Z,4.69
2022-09-10T11:26:00.365Z,4.40
2022-09-10T11:27:31.781Z,4.71
2022-09-10T11:29:03.110Z,4.51
2022-09-10T11:30:34.462Z,4.21
2022-09-10T11:32:05.810Z,4.26
2022-09-10T11:33:37.251Z,4.57
2022-09-10T11:35:08.493Z,4.97
2022-09-10T11:36:39.858Z,5.13
2022-09-10T11:38:11.234Z,4.42
2022-09-10T11:39:42.682Z,4.27
2022-09-10T11:41:14.247Z,4.03
2022-09-10T11:42:45.733Z,4.37
2022-09-10T11:44:17.042Z,4.27
2022-09-10T11:45:48.422Z,4.42
2022-09-10T11:47:19.997Z,4.75
2022-09-10T11:48:51.352Z,4.59
2022-09-10T11:50:22.752Z,4.66
2022-09-10T11:51:54.163Z,4.68
2022-09-10T11:53:25.763Z,4.84
2022-09-10T11:54:57.065Z,5.04
2022-09-10T11:56:28.472Z,4.66
2022-09-10T11:58:00.167Z,4.50
2022-09-10T11:59:31.482Z,4.75
2022-09-10T12:01:02.808Z,4.54
2022-09-10T12:02:34.217Z,4.17
2022-09-10T12:04:05.658Z,3.87
2022-09-10T12:05:37.006Z,3.30
2022-09-10T12:07:09.662Z,3.09
2022-09-10T12:08:41.013Z,3.21
2022-09-10T12:10:14.493Z,3.31
2022-09-10T12:11:46.148Z,2.98
2022-09-10T12:13:17.582Z,2.98
2022-09-10T12:14:48.957Z,3.13
2022-09-10T12:16:20.310Z,3.23
2022-09-10T12:17:51.719Z,3.44
2022-09-10T12:19:23.130Z,3.38
2022-09-10T12:20:55.657Z,3.67
2022-09-10T12:22:27.160Z,3.61
2022-09-10T12:23:58.769Z,3.71
2022-09-10T12:25:34.016Z,3.30
2022-09-10T12:27:05.780Z,3.34
2022-09-10T12:28:37.150Z,3.30
2022-09-10T12:30:08.595Z,3.47
2022-09-10T12:31:40.197Z,3.90
2022-09-10T12:33:11.644Z,4.28
2022-09-10T12:34:43.002Z,4.21
2022-09-10T12:36:14.321Z,4.93
2022-09-10T12:37:45.868Z,5.48
2022-09-10T12:39:17.372Z,5.35
2022-09-10T12:40:48.714Z,5.96
2022-09-10T12:42:20.203Z,6.23
2022-09-10T12:43:51.544Z,6.71
2022-09-10T12:45:22.931Z,6.31
2022-09-10T12:46:54.317Z,7.10
2022-09-10T12:48:27.156Z,7.46
2022-09-10T12:49:58.690Z,7.80
2022-09-10T12:51:30.106Z,8.17
2022-09-10T12:53:01.493Z,8.12
2022-09-10T12:54:32.909Z,8.08
2022-09-10T12:56:04.304Z,8.28
2022-09-10T12:57:35.647Z,7.87
2022-09-10T12:59:07.019Z,8.44
2022-09-10T13:00:38.371Z,8.33
2022-09-10T13:02:09.765Z,8.51
2022-09-10T13:03:41.416Z,8.34
2022-09-10T13:05:12.805Z,8.52
2022-09-10T13:06:44.252Z,8.86
2022-09-10T13:08:15.655Z,8.85
2022-09-10T13:09:46.992Z,9.14
2022-09-10T13:11:18.334Z,9.69
2022-09-10T13:12:49.710Z,9.42
2022-09-10T13:14:21.023Z,9.77
2022-09-10T13:15:52.522Z,9.89
2022-09-10T13:17:23.854Z,10.15
2022-09-10T13:18:57.086Z,10.21
2022-09-10T13:20:33.572Z,11.71
2022-09-10T13:22:04.907Z,10.98
2022-09-10T13:23:36.432Z,11.22
2022-09-10T13:25:08.126Z,11.63
2022-09-10T13:26:39.553Z,11.91
2022-09-10T13:28:10.956Z,12.47
2022-09-10T13:29:42.405Z,12.56
2022-09-10T13:31:13.759Z,12.89
2022-09-10T13:32:45.328Z,13.35
2022-09-10T13:34:17.118Z,12.82
2022-09-10T13:35:48.407Z,13.07
2022-09-10T13:37:19.736Z,13.06
2022-09-10T13:38:51.083Z,12.56
2022-09-10T13:40:22.574Z,12.76
2022-09-10T13:41:54.017Z,13.06
2022-09-10T13:43:25.510Z,12.93
2022-09-10T13:44:56.895Z,13.29
2022-09-10T13:46:28.284Z,12.76
2022-09-10T13:47:59.819Z,11.91
2022-09-10T13:49:31.185Z,12.40
2022-09-10T13:51:02.476Z,13.05
2022-09-10T13:52:33.813Z,12.98
2022-09-10T13:54:05.185Z,13.02
2022-09-10T13:55:36.528Z,13.82
2022-09-10T13:57:07.803Z,14.51
2022-09-10T13:58:39.141Z,15.36
2022-09-10T14:00:10.513Z,15.97
2022-09-10T14:01:41.918Z,16.46
2022-09-10T14:03:13.318Z,15.20
2022-09-10T14:04:45.256Z,15.32
2022-09-10T14:06:16.785Z,17.18
2022-09-10T14:07:48.155Z,14.33
2022-09-10T14:09:19.637Z,13.25
2022-09-10T14:10:51.131Z,13.31
2022-09-10T14:12:22.447Z,12.66
2022-09-10T14:13:53.915Z,12.59
2022-09-10T14:15:25.196Z,13.15
2022-09-10T14:16:56.606Z,12.35
2022-09-10T14:18:28.094Z,12.96
2022-09-10T14:19:59.547Z,12.59
2022-09-10T14:21:31.159Z,13.35
2022-09-10T14:23:02.417Z,12.88
2022-09-10T14:24:33.719Z,12.89
2022-09-10T14:26:05.086Z,12.40
2022-09-10T14:27:36.427Z,13.16
2022-09-10T14:29:08.139Z,13.02
2022-09-10T14:30:39.515Z,11.84
2022-09-10T14:32:10.980Z,12.12
2022-09-10T14:33:43.459Z,12.41
2022-09-10T14:35:15.089Z,13.03
2022-09-10T14:36:46.463Z,12.73
2022-09-10T14:38:23.053Z,12.64
2022-09-10T14:39:54.608Z,13.27
2022-09-10T14:41:26.060Z,12.70
2022-09-10T14:42:57.431Z,13.16
2022-09-10T14:44:28.806Z,13.00
2022-09-10T14:46:00.186Z,13.27
2022-09-10T14:47:31.601Z,13.40
2022-09-10T14:49:02.979Z,13.90
2022-09-10T14:50:34.406Z,13.43
2022-09-10T14:52:05.724Z,13.92
2022-09-10T14:53:37.073Z,14.36
2022-09-10T14:55:08.416Z,14.59
2022-09-10T14:56:40.007Z,14.95
2022-09-10T14:58:11.396Z,13.99
2022-09-10T14:59:42.943Z,14.26
2022-09-10T15:01:14.337Z,12.92
2022-09-10T15:02:45.712Z,12.58
2022-09-10T15:04:17.245Z,12.78
2022-09-10T15:05:49.709Z,13.26
2022-09-10T15:07:21.191Z,14.24
2022-09-10T15:08:52.565Z,14.40
2022-09-10T15:10:24.050Z,14.42
2022-09-10T15:11:55.347Z,14.01
2022-09-10T15:13:26.708Z,13.94
2022-09-10T15:14:58.013Z,13.57
2022-09-10T15:16:29.399Z,14.05
2022-09-10T15:18:01.095Z,13.55
2022-09-10T15:19:32.470Z,13.63
2022-09-10T15:21:03.761Z,13.38
2022-09-10T15:22:35.159Z,13.22
2022-09-10T15:24:06.434Z,13.43
2022-09-10T15:25:38.694Z,13.20
2022-09-10T15:27:10.150Z,13.81
2022-09-10T15:28:41.483Z,13.40
2022-09-10T15:30:12.821Z,13.46
2022-09-10T15:31:44.333Z,13.56
2022-09-10T15:33:15.700Z,14.15
2022-09-10T15:34:47.096Z,13.53
2022-09-10T15:36:18.401Z,14.17
2022-09-10T15:37:49.790Z,14.15
2022-09-10T15:39:21.104Z,13.76
2022-09-10T15:40:52.421Z,13.33
2022-09-10T15:42:23.939Z,13.14
2022-09-10T15:43:55.298Z,13.39
2022-09-10T15:45:26.612Z,13.43
2022-09-10T15:46:57.924Z,13.81
2022-09-10T15:48:29.258Z,14.66
2022-09-10T15:50:00.597Z,14.38
2022-09-10T15:51:32.005Z,14.11
2022-09-10T15:53:03.369Z,14.60
2022-09-10T15:54:34.725Z,14.77
2022-09-10T15:56:06.099Z,13.69
2022-09-10T15:57:37.447Z,14.08
2022-09-10T15:59:08.755Z,14.69
2022-09-10T16:00:40.090Z,14.03
2022-09-10T16:02:11.377Z,14.56
2022-09-10T16:03:42.763Z,13.58
2022-09-10T16:05:14.196Z,13.36
2022-09-10T16:06:45.845Z,13.45
2022-09-10T16:08:17.220Z,13.53
2022-09-10T16:09:48.572Z,13.29
2022-09-10T16:11:19.969Z,12.77
2022-09-10T16:12:51.408Z,13.54
2022-09-10T16:14:22.926Z,12.64
2022-09-10T16:15:54.664Z,13.43
2022-09-10T16:17:26.045Z,13.06
2022-09-10T16:18:57.461Z,12.78
2022-09-10T16:20:28.791Z,11.98
2022-09-10T16:22:00.307Z,11.90
2022-09-10T16:23:31.748Z,12.15
2022-09-10T16:25:03.175Z,11.79
2022-09-10T16:26:34.588Z,11.44
2022-09-10T16:28:05.907Z,11.01
2022-09-10T16:29:37.354Z,10.11
2022-09-10T16:31:08.756Z,10.40
2022-09-10T16:32:40.143Z,10.25
2022-09-10T16:34:11.432Z,9.89
2022-09-10T16:35:42.898Z,7.86
2022-09-10T16:37:14.286Z,8.01
2022-09-10T16:38:45.630Z,8.03
2022-09-10T16:40:17.089Z,8.14
2022-09-10T16:41:48.589Z,7.78
2022-09-10T16:43:19.989Z,7.60
2022-09-10T16:44:51.297Z,7.88
2022-09-10T16:46:22.638Z,7.78
2022-09-10T16:47:54.200Z,7.93
2022-09-10T16:49:25.609Z,7.85
2022-09-10T16:50:57.346Z,8.10
2022-09-10T16:52:28.692Z,7.74
2022-09-10T16:54:00.073Z,8.38
2022-09-10T16:55:41.733Z,8.51
2022-09-10T16:57:13.044Z,8.06
2022-09-10T16:58:44.373Z,8.18
2022-09-10T17:00:15.956Z,8.22
2022-09-10T17:01:47.496Z,7.96
2022-09-10T17:03:18.936Z,8.53
2022-09-10T17:04:50.328Z,9.14
2022-09-10T17:06:21.671Z,9.08
2022-09-10T17:07:52.992Z,10.49
2022-09-10T17:09:24.354Z,10.08
2022-09-10T17:10:55.885Z,9.52
2022-09-10T17:12:27.319Z,9.56
2022-09-10T17:13:58.709Z,9.71
2022-09-10T17:15:30.101Z,9.85
2022-09-10T17:17:02.124Z,10.31
2022-09-10T17:18:33.474Z,11.16
2022-09-10T17:20:04.859Z,11.01
2022-09-10T17:21:36.249Z,10.72
2022-09-10T17:23:07.612Z,10.93
2022-09-10T17:24:39.260Z,10.66
2022-09-10T17:26:10.646Z,10.49
2022-09-10T17:27:41.959Z,10.81
2022-09-10T17:29:13.451Z,10.97
2022-09-10T17:30:44.850Z,10.26
2022-09-10T17:32:16.262Z,10.46
2022-09-10T17:33:47.684Z,10.59
2022-09-10T17:35:19.052Z,11.75
2022-09-10T17:36:50.363Z,11.45
2022-09-10T17:38:21.658Z,12.32
2022-09-10T17:39:53.011Z,11.24
2022-09-10T17:41:24.344Z,11.04
2022-09-10T17:42:55.870Z,11.34
2022-09-10T17:44:27.586Z,11.32
2022-09-10T17:45:59.002Z,11.46
2022-09-10T17:47:30.522Z,11.57
2022-09-10T17:49:01.888Z,11.59
2022-09-10T17:50:33.258Z,10.90
2022-09-10T17:52:04.559Z,11.13
2022-09-10T17:53:36.005Z,10.98
2022-09-10T17:55:07.288Z,11.08
2022-09-10T17:56:38.631Z,10.81
2022-09-10T17:58:10.105Z,10.55
2022-09-10T17:59:41.435Z,10.69
2022-09-10T18:01:12.779Z,10.44
2022-09-10T18:02:44.245Z,9.63
2022-09-10T18:04:15.617Z,10.63
2022-09-10T18:05:47.100Z,10.66
2022-09-10T18:07:18.460Z,11.13
2022-09-10T18:08:49.987Z,11.37
2022-09-10T18:10:21.297Z,11.49
2022-09-10T18:11:52.618Z,11.68
2022-09-10T18:13:23.914Z,11.86
2022-09-10T18:14:55.244Z,12.12
2022-09-10T18:16:26.619Z,12.31
2022-09-10T18:17:58.012Z,12.54
2022-09-10T18:19:29.457Z,12.91
2022-09-10T18:21:00.896Z,12.39
2022-09-10T18:22:32.219Z,12.40
2022-09-10T18:24:03.689Z,12.53
2022-09-10T18:25:34.987Z,12.96
2022-09-10T18:27:06.538Z,13.46
2022-09-10T18:28:37.906Z,13.30
2022-09-10T18:30:19.308Z,13.84
2022-09-10T18:31:50.702Z,14.04
2022-09-10T18:33:22.963Z,14.30
2022-09-10T18:34:54.345Z,14.46
2022-09-10T18:36:25.656Z,14.59
2022-09-10T18:37:57.032Z,14.90
2022-09-10T18:39:28.326Z,15.00
2022-09-10T18:40:59.699Z,15.81
2022-09-10T18:42:31.005Z,15.96
2022-09-10T18:44:02.355Z,16.75
2022-09-10T18:45:33.655Z,16.85
2022-09-10T18:47:05.039Z,17.09
2022-09-10T18:48:36.370Z,17.12
2022-09-10T18:50:07.726Z,17.21
2022-09-10T18:51:39.074Z,19.28
2022-09-10T18:53:10.507Z,19.45
2022-09-10T18:54:44.708Z,19.20
2022-09-10T18:56:17.928Z,19.70
2022-09-10T18:57:49.240Z,19.06
2022-09-10T18:59:20.727Z,19.26
2022-09-10T19:00:55.430Z,19.03
2022-09-10T19:02:29.865Z,20.44
2022-09-10T19:04:02.369Z,18.81
2022-09-10T19:05:33.799Z,19.92
2022-09-10T19:07:05.292Z,20.26
2022-09-10T19:08:36.614Z,20.38
2022-09-10T19:10:08.061Z,19.82
2022-09-10T19:11:39.504Z,20.41
2022-09-10T19:13:10.860Z,20.06
2022-09-10T19:14:42.337Z,20.56
2022-09-10T19:16:13.651Z,20.22
2022-09-10T19:17:45.011Z,20.53
2022-09-10T19:19:16.316Z,20.36
2022-09-10T19:20:47.884Z,20.34
2022-09-10T19:22:19.183Z,20.25
2022-09-10T19:23:50.677Z,20.32
2022-09-10T19:25:22.220Z,19.78
2022-09-10T19:26:53.829Z,20.69
2022-09-10T19:28:25.099Z,20.99
2022-09-10T19:29:56.726Z,20.66
2022-09-10T19:31:28.083Z,20.27
2022-09-10T19:32:59.450Z,20.73
2022-09-10T19:34:31.143Z,20.43
2022-09-10T19:36:03.774Z,20.40
2022-09-10T19:37:35.407Z,20.69
2022-09-10T19:39:06.868Z,20.19
2022-09-10T19:40:38.215Z,20.71
2022-09-10T19:42:09.624Z,20.70
2022-09-10T19:43:41.092Z,21.08
2022-09-10T19:45:12.360Z,21.35
2022-09-10T19:46:43.759Z,20.86
2022-09-10T19:48:15.118Z,20.81
2022-09-10T19:49:46.774Z,21.48
2022-09-10T19:51:18.092Z,21.16
2022-09-10T19:52:49.483Z,21.52
2022-09-10T19:54:20.763Z,21.70
2022-09-10T19:55:52.051Z,21.85
2022-09-10T19:57:23.336Z,22.09
2022-09-10T19:58:54.886Z,22.36
2022-09-10T20:00:45.880Z,22.64
2022-09-10T20:02:19.113Z,22.41
2022-09-10T20:03:50.696Z,22.60
2022-09-10T20:05:22.026Z,23.16
2022-09-10T20:06:53.320Z,23.05
2022-09-10T20:08:24.682Z,23.65
2022-09-10T20:09:55.976Z,23.34